sensor_id;sensor_type;location;lat;lon;timestamp;pressure;altitude;pressure_sealevel;temperature;humidity
28630;BME280;15817;42.130;24.762;2023-08-20T00:01:14;99941.19;;;26.43;61.93
28630;BME280;15817;42.130;24.762;2023-08-20T00:03:44;99940.34;;;26.42;62.56
28630;BME280;15817;42.130;24.762;2023-08-20T00:06:11;99945.91;;;26.41;62.47
28630;BME280;15817;42.130;24.762;2023-08-20T00:08:37;99932.66;;;26.35;62.93
28630;BME280;15817;42.130;24.762;2023-08-20T00:11:03;99941.41;;;26.40;63.51
28630;BME280;15817;42.130;24.762;2023-08-20T00:13:31;99927.66;;;26.28;63.50
28630;BME280;15817;42.130;24.762;2023-08-20T00:15:57;99928.91;;;26.23;63.07
28630;BME280;15817;42.130;24.762;2023-08-20T00:18:23;99935.56;;;26.19;63.25
28630;BME280;15817;42.130;24.762;2023-08-20T00:20:49;99931.50;;;26.12;63.60
28630;BME280;15817;42.130;24.762;2023-08-20T00:23:15;99932.06;;;26.17;63.18
28630;BME280;15817;42.130;24.762;2023-08-20T00:25:41;99928.59;;;26.15;62.55
28630;BME280;15817;42.130;24.762;2023-08-20T00:28:07;99915.50;;;26.07;62.36
28630;BME280;15817;42.130;24.762;2023-08-20T00:30:32;99924.97;;;26.14;62.65
28630;BME280;15817;42.130;24.762;2023-08-20T00:32:58;99910.56;;;26.12;62.04
28630;BME280;15817;42.130;24.762;2023-08-20T00:35:24;99928.25;;;26.19;62.03
28630;BME280;15817;42.130;24.762;2023-08-20T00:37:50;99922.78;;;26.19;61.41
28630;BME280;15817;42.130;24.762;2023-08-20T00:40:16;99924.69;;;26.19;61.16
28630;BME280;15817;42.130;24.762;2023-08-20T00:42:42;99920.06;;;26.19;60.41
28630;BME280;15817;42.130;24.762;2023-08-20T00:45:13;99917.34;;;26.19;60.42
28630;BME280;15817;42.130;24.762;2023-08-20T00:47:38;99914.75;;;26.18;60.40
28630;BME280;15817;42.130;24.762;2023-08-20T00:50:06;99917.78;;;26.13;60.50
28630;BME280;15817;42.130;24.762;2023-08-20T00:52:34;99926.63;;;26.17;60.45
28630;BME280;15817;42.130;24.762;2023-08-20T00:55:09;99932.38;;;26.12;60.38
28630;BME280;15817;42.130;24.762;2023-08-20T00:57:36;99924.31;;;26.11;60.57
28630;BME280;15817;42.130;24.762;2023-08-20T01:00:03;99929.88;;;26.09;59.92
28630;BME280;15817;42.130;24.762;2023-08-20T01:02:34;99924.75;;;26.05;57.98
28630;BME280;15817;42.130;24.762;2023-08-20T01:05:01;99912.19;;;26.02;57.51
28630;BME280;15817;42.130;24.762;2023-08-20T01:07:30;99925.28;;;26.10;56.67
28630;BME280;15817;42.130;24.762;2023-08-20T01:10:23;99915.13;;;25.99;56.71
28630;BME280;15817;42.130;24.762;2023-08-20T01:12:51;99917.66;;;26.02;56.26
28630;BME280;15817;42.130;24.762;2023-08-20T01:15:17;99902.81;;;25.93;56.34
28630;BME280;15817;42.130;24.762;2023-08-20T01:17:45;99910.09;;;25.93;55.91
28630;BME280;15817;42.130;24.762;2023-08-20T01:20:12;99925.25;;;25.97;56.11
28630;BME280;15817;42.130;24.762;2023-08-20T01:25:59;99909.22;;;25.92;56.36
28630;BME280;15817;42.130;24.762;2023-08-20T01:28:30;99901.69;;;25.83;56.12
28630;BME280;15817;42.130;24.762;2023-08-20T01:30:58;99895.09;;;25.73;56.37
28630;BME280;15817;42.130;24.762;2023-08-20T01:33:24;99894.34;;;25.71;56.14
28630;BME280;15817;42.130;24.762;2023-08-20T01:35:54;99897.06;;;25.71;56.03
28630;BME280;15817;42.130;24.762;2023-08-20T01:38:21;99895.97;;;25.74;55.69
28630;BME280;15817;42.130;24.762;2023-08-20T01:40:48;99900.25;;;25.78;55.46
28630;BME280;15817;42.130;24.762;2023-08-20T01:43:14;99893.91;;;25.77;55.60
28630;BME280;15817;42.130;24.762;2023-08-20T01:45:40;99897.50;;;25.78;55.69
28630;BME280;15817;42.130;24.762;2023-08-20T01:48:07;99883.34;;;25.73;55.71
28630;BME280;15817;42.130;24.762;2023-08-20T01:50:34;99884.44;;;25.70;55.90
28630;BME280;15817;42.130;24.762;2023-08-20T01:53:01;99891.53;;;25.73;56.00
28630;BME280;15817;42.130;24.762;2023-08-20T01:55:28;99891.63;;;25.71;56.06
28630;BME280;15817;42.130;24.762;2023-08-20T01:57:54;99879.28;;;25.66;55.95
28630;BME280;15817;42.130;24.762;2023-08-20T02:00:20;99889.19;;;25.67;56.10
28630;BME280;15817;42.130;24.762;2023-08-20T02:02:46;99893.09;;;25.63;56.36
28630;BME280;15817;42.130;24.762;2023-08-20T02:05:11;99893.28;;;25.59;56.37
28630;BME280;15817;42.130;24.762;2023-08-20T02:07:38;99882.59;;;25.56;56.26
28630;BME280;15817;42.130;24.762;2023-08-20T02:10:04;99882.41;;;25.59;56.11
28630;BME280;15817;42.130;24.762;2023-08-20T02:12:30;99882.09;;;25.64;56.30
28630;BME280;15817;42.130;24.762;2023-08-20T02:14:56;99888.53;;;25.63;56.41
28630;BME280;15817;42.130;24.762;2023-08-20T02:17:24;99883.75;;;25.52;56.45
28630;BME280;15817;42.130;24.762;2023-08-20T02:19:53;99890.00;;;25.54;56.44
28630;BME280;15817;42.130;24.762;2023-08-20T02:22:40;99876.56;;;25.51;56.33
28630;BME280;15817;42.130;24.762;2023-08-20T02:25:08;99893.38;;;25.58;55.90
28630;BME280;15817;42.130;24.762;2023-08-20T02:27:34;99885.63;;;25.52;55.77
28630;BME280;15817;42.130;24.762;2023-08-20T02:29:59;99901.84;;;25.53;55.92
28630;BME280;15817;42.130;24.762;2023-08-20T02:32:28;99900.22;;;25.51;56.13
28630;BME280;15817;42.130;24.762;2023-08-20T02:34:54;99906.75;;;25.48;56.00
28630;BME280;15817;42.130;24.762;2023-08-20T02:37:20;99900.22;;;25.51;56.18
28630;BME280;15817;42.130;24.762;2023-08-20T02:39:45;99901.09;;;25.51;56.35
28630;BME280;15817;42.130;24.762;2023-08-20T02:42:11;99907.41;;;25.52;56.45
28630;BME280;15817;42.130;24.762;2023-08-20T02:44:37;99893.44;;;25.44;56.52
28630;BME280;15817;42.130;24.762;2023-08-20T02:47:03;99898.78;;;25.45;56.57
28630;BME280;15817;42.130;24.762;2023-08-20T02:49:29;99892.75;;;25.40;56.43
28630;BME280;15817;42.130;24.762;2023-08-20T02:51:54;99910.84;;;25.41;56.68
28630;BME280;15817;42.130;24.762;2023-08-20T02:54:20;99894.16;;;25.33;56.66
28630;BME280;15817;42.130;24.762;2023-08-20T02:56:46;99897.84;;;25.32;56.67
28630;BME280;15817;42.130;24.762;2023-08-20T02:59:12;99904.06;;;25.34;56.61
28630;BME280;15817;42.130;24.762;2023-08-20T03:01:37;99914.97;;;25.34;56.77
28630;BME280;15817;42.130;24.762;2023-08-20T03:04:03;99906.22;;;25.29;57.25
28630;BME280;15817;42.130;24.762;2023-08-20T03:06:29;99904.00;;;25.21;57.51
28630;BME280;15817;42.130;24.762;2023-08-20T03:08:55;99898.75;;;25.18;57.75
28630;BME280;15817;42.130;24.762;2023-08-20T03:11:21;99908.47;;;25.22;58.55
28630;BME280;15817;42.130;24.762;2023-08-20T03:13:47;99909.19;;;25.12;58.88
28630;BME280;15817;42.130;24.762;2023-08-20T03:16:12;99913.47;;;25.02;58.83
28630;BME280;15817;42.130;24.762;2023-08-20T03:18:38;99910.06;;;24.98;58.86
28630;BME280;15817;42.130;24.762;2023-08-20T03:21:04;99907.94;;;25.03;58.65
28630;BME280;15817;42.130;24.762;2023-08-20T03:23:30;99905.78;;;25.08;58.77
28630;BME280;15817;42.130;24.762;2023-08-20T03:25:59;99899.44;;;25.08;59.03
28630;BME280;15817;42.130;24.762;2023-08-20T03:28:25;99915.22;;;25.03;58.92
28630;BME280;15817;42.130;24.762;2023-08-20T03:30:52;99916.47;;;24.97;59.25
28630;BME280;15817;42.130;24.762;2023-08-20T03:33:21;99901.69;;;24.87;58.83
28630;BME280;15817;42.130;24.762;2023-08-20T03:35:47;99914.22;;;24.89;58.86
28630;BME280;15817;42.130;24.762;2023-08-20T03:38:13;99906.44;;;24.83;59.17
28630;BME280;15817;42.130;24.762;2023-08-20T03:40:38;99900.81;;;24.86;58.84
28630;BME280;15817;42.130;24.762;2023-08-20T03:43:04;99901.59;;;24.88;58.89
28630;BME280;15817;42.130;24.762;2023-08-20T03:45:30;99908.59;;;24.93;58.80
28630;BME280;15817;42.130;24.762;2023-08-20T03:47:56;99902.75;;;24.84;58.58
28630;BME280;15817;42.130;24.762;2023-08-20T03:50:22;99899.84;;;24.87;58.81
28630;BME280;15817;42.130;24.762;2023-08-20T03:52:48;99901.97;;;24.82;58.57
28630;BME280;15817;42.130;24.762;2023-08-20T03:55:14;99912.75;;;24.84;58.67
28630;BME280;15817;42.130;24.762;2023-08-20T03:57:40;99904.91;;;24.79;58.47
28630;BME280;15817;42.130;24.762;2023-08-20T04:00:06;99906.94;;;24.76;58.84
28630;BME280;15817;42.130;24.762;2023-08-20T04:02:44;99912.47;;;24.74;58.79
28630;BME280;15817;42.130;24.762;2023-08-20T04:05:10;99912.47;;;24.74;58.72
28630;BME280;15817;42.130;24.762;2023-08-20T04:07:35;99902.56;;;24.73;58.51
28630;BME280;15817;42.130;24.762;2023-08-20T04:10:01;99915.97;;;24.76;58.80
28630;BME280;15817;42.130;24.762;2023-08-20T04:12:30;99915.66;;;24.81;58.70
28630;BME280;15817;42.130;24.762;2023-08-20T04:14:56;99907.41;;;24.82;58.79
28630;BME280;15817;42.130;24.762;2023-08-20T04:17:22;99919.94;;;24.85;58.73
28630;BME280;15817;42.130;24.762;2023-08-20T04:19:47;99919.47;;;24.93;58.66
28630;BME280;15817;42.130;24.762;2023-08-20T04:22:13;99920.25;;;24.95;58.94
28630;BME280;15817;42.130;24.762;2023-08-20T04:24:39;99921.13;;;24.95;58.87
28630;BME280;15817;42.130;24.762;2023-08-20T04:27:05;99925.81;;;24.93;58.34
28630;BME280;15817;42.130;24.762;2023-08-20T04:29:31;99919.19;;;24.97;58.07
28630;BME280;15817;42.130;24.762;2023-08-20T04:31:58;99919.97;;;24.99;57.89
28630;BME280;15817;42.130;24.762;2023-08-20T04:34:24;99929.59;;;25.05;57.48
28630;BME280;15817;42.130;24.762;2023-08-20T04:36:52;99934.84;;;25.08;57.39
28630;BME280;15817;42.130;24.762;2023-08-20T04:39:18;99923.16;;;25.06;57.50
28630;BME280;15817;42.130;24.762;2023-08-20T04:41:48;99926.88;;;25.05;57.88
28630;BME280;15817;42.130;24.762;2023-08-20T04:44:16;99932.81;;;25.11;57.86
28630;BME280;15817;42.130;24.762;2023-08-20T04:46:43;99922.19;;;25.07;57.78
28630;BME280;15817;42.130;24.762;2023-08-20T04:49:09;99936.41;;;25.12;57.96
28630;BME280;15817;42.130;24.762;2023-08-20T04:51:37;99934.47;;;25.14;57.89
28630;BME280;15817;42.130;24.762;2023-08-20T04:54:03;99928.22;;;25.12;57.94
28630;BME280;15817;42.130;24.762;2023-08-20T04:56:29;99923.84;;;25.09;58.63
28630;BME280;15817;42.130;24.762;2023-08-20T04:58:55;99924.72;;;25.10;57.80
28630;BME280;15817;42.130;24.762;2023-08-20T05:01:40;99936.31;;;25.13;58.13
28630;BME280;15817;42.130;24.762;2023-08-20T05:04:06;99926.47;;;25.11;57.89
28630;BME280;15817;42.130;24.762;2023-08-20T05:06:32;99934.66;;;25.11;57.97
28630;BME280;15817;42.130;24.762;2023-08-20T05:08:58;99925.59;;;25.10;57.35
28630;BME280;15817;42.130;24.762;2023-08-20T05:11:24;99921.72;;;25.14;57.43
28630;BME280;15817;42.130;24.762;2023-08-20T05:13:57;99930.75;;;25.15;57.11
28630;BME280;15817;42.130;24.762;2023-08-20T05:16:27;99938.63;;;25.19;57.55
28630;BME280;15817;42.130;24.762;2023-08-20T05:18:58;99937.75;;;25.19;57.45
28630;BME280;15817;42.130;24.762;2023-08-20T05:21:31;99950.19;;;25.23;57.50
28630;BME280;15817;42.130;24.762;2023-08-20T05:24:00;99942.41;;;25.17;57.24
28630;BME280;15817;42.130;24.762;2023-08-20T05:26:29;99951.34;;;25.19;57.15
28630;BME280;15817;42.130;24.762;2023-08-20T05:28:57;99958.44;;;25.21;57.24
28630;BME280;15817;42.130;24.762;2023-08-20T05:31:47;99958.56;;;25.20;57.67
28630;BME280;15817;42.130;24.762;2023-08-20T05:38:33;99959.03;;;25.27;57.90
28630;BME280;15817;42.130;24.762;2023-08-20T05:41:14;99949.50;;;25.19;58.20
28630;BME280;15817;42.130;24.762;2023-08-20T05:43:40;99955.72;;;25.21;58.13
28630;BME280;15817;42.130;24.762;2023-08-20T05:46:07;99955.72;;;25.21;58.32
28630;BME280;15817;42.130;24.762;2023-08-20T05:48:32;99950.09;;;25.24;58.97
28630;BME280;15817;42.130;24.762;2023-08-20T05:50:58;99960.56;;;25.31;58.29
28630;BME280;15817;42.130;24.762;2023-08-20T05:53:24;99963.09;;;25.34;58.17
28630;BME280;15817;42.130;24.762;2023-08-20T05:55:50;99951.94;;;25.24;58.40
28630;BME280;15817;42.130;24.762;2023-08-20T05:58:16;99964.59;;;25.25;58.36
28630;BME280;15817;42.130;24.762;2023-08-20T06:00:42;99966.34;;;25.26;58.56
28630;BME280;15817;42.130;24.762;2023-08-20T06:03:08;99974.19;;;25.31;58.68
28630;BME280;15817;42.130;24.762;2023-08-20T06:06:00;99963.28;;;25.31;58.60
28630;BME280;15817;42.130;24.762;2023-08-20T06:08:26;99960.47;;;25.32;58.55
28630;BME280;15817;42.130;24.762;2023-08-20T06:10:52;99965.63;;;25.37;58.50
28630;BME280;15817;42.130;24.762;2023-08-20T06:13:18;99969.00;;;25.40;58.28
28630;BME280;15817;42.130;24.762;2023-08-20T06:15:44;99960.09;;;25.38;58.01
28630;BME280;15817;42.130;24.762;2023-08-20T06:18:09;99962.41;;;25.44;58.01
28630;BME280;15817;42.130;24.762;2023-08-20T06:20:36;99959.47;;;25.47;58.14
28630;BME280;15817;42.130;24.762;2023-08-20T06:23:02;99973.38;;;25.57;57.93
28630;BME280;15817;42.130;24.762;2023-08-20T06:25:57;99963.53;;;25.54;57.84
28630;BME280;15817;42.130;24.762;2023-08-20T06:28:35;99977.94;;;25.56;57.65
28630;BME280;15817;42.130;24.762;2023-08-20T06:31:04;99962.75;;;25.52;57.99
28630;BME280;15817;42.130;24.762;2023-08-20T06:33:30;99965.38;;;25.54;57.94
28630;BME280;15817;42.130;24.762;2023-08-20T06:35:55;99964.41;;;25.55;57.91
28630;BME280;15817;42.130;24.762;2023-08-20T06:38:21;99966.84;;;25.59;57.96
28630;BME280;15817;42.130;24.762;2023-08-20T06:40:47;99977.25;;;25.67;58.03
28630;BME280;15817;42.130;24.762;2023-08-20T06:43:13;99978.81;;;25.71;57.63
28630;BME280;15817;42.130;24.762;2023-08-20T06:45:39;99968.00;;;25.70;57.42
28630;BME280;15817;42.130;24.762;2023-08-20T06:48:05;99983.16;;;25.74;57.49
28630;BME280;15817;42.130;24.762;2023-08-20T06:50:36;99984.81;;;25.76;57.81
28630;BME280;15817;42.130;24.762;2023-08-20T06:53:02;99985.41;;;25.81;57.71
28630;BME280;15817;42.130;24.762;2023-08-20T06:55:31;99978.19;;;25.80;57.68
28630;BME280;15817;42.130;24.762;2023-08-20T06:57:57;99986.19;;;25.83;57.91
28630;BME280;15817;42.130;24.762;2023-08-20T07:00:23;99971.78;;;25.81;57.90
28630;BME280;15817;42.130;24.762;2023-08-20T07:02:48;99973.53;;;25.82;57.67
28630;BME280;15817;42.130;24.762;2023-08-20T07:05:17;99979.75;;;25.84;57.00
28630;BME280;15817;42.130;24.762;2023-08-20T07:07:44;99978.88;;;25.84;56.92
28630;BME280;15817;42.130;24.762;2023-08-20T07:10:13;99991.09;;;25.91;57.64
28630;BME280;15817;42.130;24.762;2023-08-20T07:12:48;99974.84;;;25.89;57.82
28630;BME280;15817;42.130;24.762;2023-08-20T07:15:19;99989.78;;;25.96;57.15
28630;BME280;15817;42.130;24.762;2023-08-20T07:17:48;99968.88;;;25.97;57.61
28630;BME280;15817;42.130;24.762;2023-08-20T07:20:13;99976.53;;;26.05;57.65
28630;BME280;15817;42.130;24.762;2023-08-20T07:22:41;99978.06;;;26.09;57.55
28630;BME280;15817;42.130;24.762;2023-08-20T07:25:08;99981.16;;;26.17;57.22
28630;BME280;15817;42.130;24.762;2023-08-20T07:27:34;99980.19;;;26.18;56.95
28630;BME280;15817;42.130;24.762;2023-08-20T07:30:00;99976.25;;;26.22;57.03
28630;BME280;15817;42.130;24.762;2023-08-20T07:32:25;99982.22;;;26.28;56.52
28630;BME280;15817;42.130;24.762;2023-08-20T07:34:51;99967.59;;;26.29;56.77
28630;BME280;15817;42.130;24.762;2023-08-20T07:37:17;99980.47;;;26.40;56.51
28630;BME280;15817;42.130;24.762;2023-08-20T07:39:42;99976.00;;;26.39;56.39
28630;BME280;15817;42.130;24.762;2023-08-20T07:42:08;99969.91;;;26.48;56.33
28630;BME280;15817;42.130;24.762;2023-08-20T07:44:37;99965.66;;;26.57;55.96
28630;BME280;15817;42.130;24.762;2023-08-20T07:47:03;99971.88;;;26.72;55.82
28630;BME280;15817;42.130;24.762;2023-08-20T07:49:29;99961.75;;;26.86;55.58
28630;BME280;15817;42.130;24.762;2023-08-20T07:51:58;99970.16;;;27.09;54.51
28630;BME280;15817;42.130;24.762;2023-08-20T07:54:23;99971.44;;;27.28;54.43
28630;BME280;15817;42.130;24.762;2023-08-20T07:56:55;99957.97;;;27.38;53.81
28630;BME280;15817;42.130;24.762;2023-08-20T07:59:21;99950.72;;;27.62;53.55
28630;BME280;15817;42.130;24.762;2023-08-20T08:01:50;99966.13;;;27.87;52.09
28630;BME280;15817;42.130;24.762;2023-08-20T08:04:16;99969.50;;;28.15;51.24
28630;BME280;15817;42.130;24.762;2023-08-20T08:06:42;99961.16;;;28.40;50.40
28630;BME280;15817;42.130;24.762;2023-08-20T08:09:26;99957.47;;;28.63;48.47
28630;BME280;15817;42.130;24.762;2023-08-20T08:11:57;99951.03;;;28.75;48.66
28630;BME280;15817;42.130;24.762;2023-08-20T08:14:47;99962.19;;;29.07;47.67
28630;BME280;15817;42.130;24.762;2023-08-20T08:17:18;99950.09;;;29.21;47.32
28630;BME280;15817;42.130;24.762;2023-08-20T08:19:44;99960.81;;;29.46;47.27
28630;BME280;15817;42.130;24.762;2023-08-20T08:22:30;99955.81;;;29.63;46.05
28630;BME280;15817;42.130;24.762;2023-08-20T08:25:04;99956.50;;;29.87;45.33
28630;BME280;15817;42.130;24.762;2023-08-20T08:27:40;99952.59;;;30.01;45.23
28630;BME280;15817;42.130;24.762;2023-08-20T08:30:15;99948.47;;;30.06;44.48
28630;BME280;15817;42.130;24.762;2023-08-20T08:32:47;99954.41;;;30.43;43.86
28630;BME280;15817;42.130;24.762;2023-08-20T08:35:16;99947.31;;;30.62;43.50
28630;BME280;15817;42.130;24.762;2023-08-20T08:37:46;99948.28;;;30.81;43.13
28630;BME280;15817;42.130;24.762;2023-08-20T08:40:15;99944.19;;;30.96;42.38
28630;BME280;15817;42.130;24.762;2023-08-20T08:42:52;99948.00;;;31.05;43.48
28630;BME280;15817;42.130;24.762;2023-08-20T08:45:25;99943.59;;;31.14;43.43
28630;BME280;15817;42.130;24.762;2023-08-20T08:47:54;99946.72;;;31.40;41.73
28630;BME280;15817;42.130;24.762;2023-08-20T08:50:28;99939.09;;;31.53;40.90
28630;BME280;15817;42.130;24.762;2023-08-20T08:53:01;99945.72;;;31.50;39.85
28630;BME280;15817;42.130;24.762;2023-08-20T08:55:27;99948.53;;;31.60;39.62
28630;BME280;15817;42.130;24.762;2023-08-20T08:57:56;99945.38;;;31.74;39.96
28630;BME280;15817;42.130;24.762;2023-08-20T09:00:35;99943.56;;;31.94;39.25
28630;BME280;15817;42.130;24.762;2023-08-20T09:03:04;99941.38;;;32.07;38.52
28630;BME280;15817;42.130;24.762;2023-08-20T09:05:30;99933.13;;;32.07;38.82
28630;BME280;15817;42.130;24.762;2023-08-20T09:08:04;99935.16;;;32.15;38.01
28630;BME280;15817;42.130;24.762;2023-08-20T09:10:32;99934.16;;;32.25;37.75
28630;BME280;15817;42.130;24.762;2023-08-20T09:12:59;99935.88;;;32.17;37.65
28630;BME280;15817;42.130;24.762;2023-08-20T09:15:33;99935.31;;;32.23;38.56
28630;BME280;15817;42.130;24.762;2023-08-20T09:21:00;99933.59;;;32.41;39.09
28630;BME280;15817;42.130;24.762;2023-08-20T09:23:28;99930.81;;;32.51;39.67
28630;BME280;15817;42.130;24.762;2023-08-20T09:25:55;99928.63;;;32.64;38.06
28630;BME280;15817;42.130;24.762;2023-08-20T09:28:30;99922.78;;;32.86;39.15
28630;BME280;15817;42.130;24.762;2023-08-20T09:31:14;99918.63;;;33.09;39.89
28630;BME280;15817;42.130;24.762;2023-08-20T09:33:53;99918.84;;;33.26;37.97
28630;BME280;15817;42.130;24.762;2023-08-20T09:36:30;99917.03;;;33.44;42.83
28630;BME280;15817;42.130;24.762;2023-08-20T09:38:56;99909.28;;;33.48;44.10
28630;BME280;15817;42.130;24.762;2023-08-20T09:41:31;99917.84;;;33.54;38.96
28630;BME280;15817;42.130;24.762;2023-08-20T09:43:59;99912.56;;;33.61;37.34
28630;BME280;15817;42.130;24.762;2023-08-20T09:46:27;99912.50;;;33.70;37.25
28630;BME280;15817;42.130;24.762;2023-08-20T09:49:07;99908.41;;;33.74;36.30
28630;BME280;15817;42.130;24.762;2023-08-20T09:51:38;99912.63;;;33.96;35.83
28630;BME280;15817;42.130;24.762;2023-08-20T09:54:34;99898.22;;;34.02;37.36
28630;BME280;15817;42.130;24.762;2023-08-20T09:57:12;99905.84;;;34.08;34.98
28630;BME280;15817;42.130;24.762;2023-08-20T09:59:43;99891.25;;;33.98;33.92
28630;BME280;15817;42.130;24.762;2023-08-20T10:02:14;99893.38;;;34.04;34.23
28630;BME280;15817;42.130;24.762;2023-08-20T10:04:49;99887.53;;;34.07;33.40
28630;BME280;15817;42.130;24.762;2023-08-20T10:07:21;99887.44;;;34.17;33.29
28630;BME280;15817;42.130;24.762;2023-08-20T10:10:03;99897.41;;;34.28;32.94
28630;BME280;15817;42.130;24.762;2023-08-20T10:12:43;99895.34;;;34.30;33.32
28630;BME280;15817;42.130;24.762;2023-08-20T10:15:20;99888.38;;;34.43;32.69
28630;BME280;15817;42.130;24.762;2023-08-20T10:17:57;99887.66;;;34.41;32.85
28630;BME280;15817;42.130;24.762;2023-08-20T10:20:28;99889.81;;;34.47;32.99
28630;BME280;15817;42.130;24.762;2023-08-20T10:23:02;99880.03;;;34.35;32.83
28630;BME280;15817;42.130;24.762;2023-08-20T10:25:42;99883.31;;;34.57;32.76
28630;BME280;15817;42.130;24.762;2023-08-20T10:28:24;99869.00;;;34.61;32.56
28630;BME280;15817;42.130;24.762;2023-08-20T10:31:10;99875.44;;;34.70;32.37
28630;BME280;15817;42.130;24.762;2023-08-20T10:33:54;99864.84;;;34.83;32.35
28630;BME280;15817;42.130;24.762;2023-08-20T10:36:24;99856.22;;;34.86;32.04
28630;BME280;15817;42.130;24.762;2023-08-20T10:39:05;99848.09;;;34.84;32.14
28630;BME280;15817;42.130;24.762;2023-08-20T10:41:39;99858.88;;;34.96;31.92
28630;BME280;15817;42.130;24.762;2023-08-20T10:44:08;99849.66;;;34.87;31.53
28630;BME280;15817;42.130;24.762;2023-08-20T10:46:49;99856.28;;;34.94;31.59
28630;BME280;15817;42.130;24.762;2023-08-20T10:49:20;99848.31;;;34.91;31.32
28630;BME280;15817;42.130;24.762;2023-08-20T10:52:04;99855.16;;;34.79;31.58
28630;BME280;15817;42.130;24.762;2023-08-20T10:54:34;99848.31;;;34.91;31.67
28630;BME280;15817;42.130;24.762;2023-08-20T10:57:04;99846.09;;;35.03;31.74
28630;BME280;15817;42.130;24.762;2023-08-20T10:59:33;99844.56;;;35.08;31.66
28630;BME280;15817;42.130;24.762;2023-08-20T11:02:16;99838.69;;;35.03;31.22
28630;BME280;15817;42.130;24.762;2023-08-20T11:04:50;99840.94;;;35.08;31.18
28630;BME280;15817;42.130;24.762;2023-08-20T11:26:43;99807.75;;;35.08;30.77
28630;BME280;15817;42.130;24.762;2023-08-20T11:29:14;99807.41;;;35.11;31.26
28630;BME280;15817;42.130;24.762;2023-08-20T11:32:18;99807.94;;;35.06;30.98
28630;BME280;15817;42.130;24.762;2023-08-20T11:38:03;99798.31;;;35.18;31.19
28630;BME280;15817;42.130;24.762;2023-08-20T11:43:43;99783.91;;;35.07;30.92
28630;BME280;15817;42.130;24.762;2023-08-20T11:46:41;99782.03;;;35.07;31.14
28630;BME280;15817;42.130;24.762;2023-08-20T11:49:42;99779.25;;;35.07;31.04
28630;BME280;15817;42.130;24.762;2023-08-20T11:55:12;99778.88;;;35.10;30.98
28630;BME280;15817;42.130;24.762;2023-08-20T12:01:32;99772.84;;;35.07;30.92
28630;BME280;15817;42.130;24.762;2023-08-20T12:04:26;99769.56;;;35.11;31.55
28630;BME280;15817;42.130;24.762;2023-08-20T12:09:36;99772.19;;;35.21;31.24
28630;BME280;15817;42.130;24.762;2023-08-20T12:12:09;99765.69;;;35.30;31.17
28630;BME280;15817;42.130;24.762;2023-08-20T12:14:43;99766.19;;;35.34;30.96
28630;BME280;15817;42.130;24.762;2023-08-20T12:17:18;99762.59;;;35.41;30.58
28630;BME280;15817;42.130;24.762;2023-08-20T12:19:58;99767.44;;;35.39;30.95
28630;BME280;15817;42.130;24.762;2023-08-20T12:23:16;99755.50;;;35.39;30.98
28630;BME280;15817;42.130;24.762;2023-08-20T12:26:05;99747.19;;;35.31;30.27
28630;BME280;15817;42.130;24.762;2023-08-20T12:29:06;99744.06;;;35.26;31.04
28630;BME280;15817;42.130;24.762;2023-08-20T12:32:26;99742.31;;;35.33;31.65
28630;BME280;15817;42.130;24.762;2023-08-20T12:34:56;99735.97;;;35.40;31.12
28630;BME280;15817;42.130;24.762;2023-08-20T12:37:22;99735.59;;;35.43;30.62
28630;BME280;15817;42.130;24.762;2023-08-20T12:39:47;99734.22;;;35.47;30.83
28630;BME280;15817;42.130;24.762;2023-08-20T12:42:17;99730.75;;;35.45;30.96
28630;BME280;15817;42.130;24.762;2023-08-20T12:45:09;99743.72;;;35.45;30.95
28630;BME280;15817;42.130;24.762;2023-08-20T12:47:43;99722.63;;;35.44;30.53
28630;BME280;15817;42.130;24.762;2023-08-20T12:50:29;99722.13;;;35.48;30.78
28630;BME280;15817;42.130;24.762;2023-08-20T12:52:55;99728.53;;;35.49;29.88
28630;BME280;15817;42.130;24.762;2023-08-20T12:55:21;99732.31;;;35.48;30.55
28630;BME280;15817;42.130;24.762;2023-08-20T12:57:58;99716.94;;;35.37;30.32
28630;BME280;15817;42.130;24.762;2023-08-20T13:00:27;99715.72;;;35.40;30.69
28630;BME280;15817;42.130;24.762;2023-08-20T13:03:07;99718.81;;;35.37;30.64
28630;BME280;15817;42.130;24.762;2023-08-20T13:05:39;99718.66;;;35.38;30.60
28630;BME280;15817;42.130;24.762;2023-08-20T13:08:08;99711.41;;;35.37;30.32
28630;BME280;15817;42.130;24.762;2023-08-20T13:10:54;99711.03;;;35.32;30.72
28630;BME280;15817;42.130;24.762;2023-08-20T13:13:33;99698.59;;;35.28;30.75
28630;BME280;15817;42.130;24.762;2023-08-20T13:16:45;99701.53;;;35.35;31.09
28630;BME280;15817;42.130;24.762;2023-08-20T13:19:39;99699.97;;;35.32;30.45
28630;BME280;15817;42.130;24.762;2023-08-20T13:26:30;99684.22;;;35.16;30.80
28630;BME280;15817;42.130;24.762;2023-08-20T13:29:14;99688.34;;;35.20;30.65
28630;BME280;15817;42.130;24.762;2023-08-20T13:32:11;99667.94;;;35.21;30.59
28630;BME280;15817;42.130;24.762;2023-08-20T13:35:06;99675.22;;;35.22;31.04
28630;BME280;15817;42.130;24.762;2023-08-20T13:37:44;99673.00;;;35.26;31.06
28630;BME280;15817;42.130;24.762;2023-08-20T13:40:45;99678.13;;;35.21;30.36
28630;BME280;15817;42.130;24.762;2023-08-20T13:43:28;99663.78;;;35.09;30.77
28630;BME280;15817;42.130;24.762;2023-08-20T13:46:15;99667.41;;;35.10;31.03
28630;BME280;15817;42.130;24.762;2023-08-20T13:49:04;99664.16;;;35.06;30.76
28630;BME280;15817;42.130;24.762;2023-08-20T13:51:42;99662.38;;;34.97;31.38
28630;BME280;15817;42.130;24.762;2023-08-20T13:54:18;99654.63;;;35.01;31.19
28630;BME280;15817;42.130;24.762;2023-08-20T13:56:52;99659.97;;;35.02;31.26
28630;BME280;15817;42.130;24.762;2023-08-20T13:59:44;99664.13;;;34.98;31.21
28630;BME280;15817;42.130;24.762;2023-08-20T14:02:22;99658.75;;;34.89;30.95